Terminal Aerodrome Forecast
Issued by NWS

Home | Current Version | Previous Version | Text Only | Print | Product List | Glossary On
Versions: 1 2 3 4 5 6 7 8 9 10 11 12 13 14 15 16 17 18 19 20 21 22 23 24
000
FTUS42 KTBW 241720
TAFPGD
TAF
KPGD 241720Z 2418/2518 13007KT P6SM FEW060 FEW250
     FM242100 26007KT P6SM SCT060 SCT250
     FM250200 10003KT P6SM BKN250
     FM251400 18008KT P6SM SCT030 BKN250=

USA.gov is the U.S. government's official web portal to all federal, state and local government web resources and services.